createdAt,value
2019-05-20T00:01:59.812Z,15.50
2019-05-20T00:04:28.319Z,15.50
2019-05-20T00:06:56.758Z,15.50
2019-05-20T00:09:25.234Z,15.50
2019-05-20T00:11:53.845Z,15.50
2019-05-20T00:14:22.436Z,15.50
2019-05-20T00:16:50.986Z,15.50
2019-05-20T00:19:19.427Z,15.50
2019-05-20T00:21:48.000Z,15.40
2019-05-20T00:24:16.505Z,15.40
2019-05-20T00:26:45.005Z,15.40
2019-05-20T00:29:13.465Z,15.40
2019-05-20T00:31:41.960Z,15.40
2019-05-20T00:34:10.398Z,15.40
2019-05-20T00:36:38.876Z,15.30
2019-05-20T00:39:16.163Z,15.30
2019-05-20T00:41:46.272Z,15.30
2019-05-20T00:44:14.769Z,15.30
2019-05-20T00:46:43.324Z,15.30
2019-05-20T00:49:11.873Z,15.30
2019-05-20T00:51:41.118Z,15.30
2019-05-20T00:54:09.732Z,15.20
2019-05-20T00:56:38.342Z,15.20
2019-05-20T00:59:06.899Z,15.20
2019-05-20T01:01:35.476Z,15.20
2019-05-20T01:04:04.156Z,15.20
2019-05-20T01:06:32.720Z,15.20
2019-05-20T01:09:01.229Z,15.20
2019-05-20T01:11:29.754Z,15.10
2019-05-20T01:13:58.222Z,15.10
2019-05-20T01:16:26.764Z,15.10
2019-05-20T01:18:55.387Z,15.10
2019-05-20T01:21:24.041Z,15.10
2019-05-20T01:23:52.602Z,15.10
2019-05-20T01:26:21.096Z,15.10
2019-05-20T01:28:49.620Z,15.10
2019-05-20T01:31:18.101Z,15.10
2019-05-20T01:33:46.585Z,15.00
2019-05-20T01:36:15.264Z,15.00
2019-05-20T01:38:45.396Z,15.10
2019-05-20T01:41:13.924Z,15.10
2019-05-20T01:43:42.442Z,15.00
2019-05-20T01:46:10.926Z,15.00
2019-05-20T01:48:39.446Z,15.00
2019-05-20T01:51:07.998Z,15.00
2019-05-20T01:53:36.519Z,15.00
2019-05-20T01:56:05.081Z,15.00
2019-05-20T01:58:33.533Z,15.00
2019-05-20T02:01:02.173Z,15.00
2019-05-20T02:03:32.318Z,15.00
2019-05-20T02:06:00.869Z,15.00
2019-05-20T02:08:29.349Z,15.00
2019-05-20T02:10:57.869Z,14.90
2019-05-20T02:13:27.977Z,14.90
2019-05-20T02:15:58.124Z,14.90
2019-05-20T02:18:26.648Z,14.90
2019-05-20T02:20:55.175Z,14.90
2019-05-20T02:23:23.728Z,14.90
2019-05-20T02:25:52.333Z,14.90
2019-05-20T02:28:20.803Z,14.90
2019-05-20T02:30:49.242Z,14.90
2019-05-20T02:33:17.741Z,14.90
2019-05-20T02:35:46.247Z,14.80
2019-05-20T02:38:14.762Z,14.90
2019-05-20T02:40:43.219Z,14.80
2019-05-20T02:43:12.320Z,14.80
2019-05-20T02:45:40.800Z,14.80
2019-05-20T02:48:09.289Z,14.80
2019-05-20T02:50:37.774Z,14.80
2019-05-20T02:53:06.333Z,14.80
2019-05-20T02:55:34.898Z,14.80
2019-05-20T02:58:03.353Z,14.80
2019-05-20T03:00:31.926Z,14.80
2019-05-20T03:03:00.364Z,14.80
2019-05-20T03:05:28.927Z,14.80
2019-05-20T03:07:57.449Z,14.80
2019-05-20T03:10:26.005Z,14.70
2019-05-20T03:12:54.530Z,14.70
2019-05-20T03:15:23.070Z,14.70
2019-05-20T03:17:51.612Z,14.70
2019-05-20T03:20:21.717Z,14.70
2019-05-20T03:22:50.445Z,14.70
2019-05-20T03:25:18.907Z,14.70
2019-05-20T03:27:47.494Z,14.70
2019-05-20T03:30:16.221Z,14.70
2019-05-20T03:32:44.714Z,14.70
2019-05-20T03:35:13.281Z,14.70
2019-05-20T03:37:41.741Z,14.70
2019-05-20T03:40:10.350Z,14.60
2019-05-20T03:42:38.793Z,14.60
2019-05-20T03:45:07.983Z,14.60
2019-05-20T03:47:36.606Z,14.60
2019-05-20T03:50:08.159Z,14.60
2019-05-20T03:52:36.833Z,14.60
2019-05-20T03:55:09.021Z,14.60
2019-05-20T03:57:37.571Z,14.60
2019-05-20T04:00:07.011Z,14.60
2019-05-20T04:02:35.578Z,14.60
2019-05-20T04:05:04.708Z,14.60
2019-05-20T04:07:33.303Z,14.60
2019-05-20T04:10:01.891Z,14.60
2019-05-20T04:12:30.392Z,14.50
2019-05-20T04:14:58.861Z,14.50
2019-05-20T04:17:27.429Z,14.50
2019-05-20T04:19:55.880Z,14.50
2019-05-20T04:22:24.379Z,14.50
2019-05-20T04:24:52.991Z,14.50
2019-05-20T04:27:21.619Z,14.50
2019-05-20T04:29:50.050Z,14.50
2019-05-20T04:32:18.521Z,14.50
2019-05-20T04:34:47.007Z,14.50
2019-05-20T04:37:15.577Z,14.50
2019-05-20T04:39:44.071Z,14.50
2019-05-20T04:42:12.640Z,14.50
2019-05-20T04:44:41.226Z,14.50
2019-05-20T04:47:09.867Z,14.40
2019-05-20T04:49:38.327Z,14.40
2019-05-20T04:52:06.955Z,14.40
2019-05-20T04:54:35.446Z,14.40
2019-05-20T04:57:05.597Z,14.40
2019-05-20T04:59:34.020Z,14.40
2019-05-20T05:02:02.491Z,14.40
2019-05-20T05:04:30.912Z,14.40
2019-05-20T05:06:59.408Z,14.40
2019-05-20T05:09:28.106Z,14.40
2019-05-20T05:11:56.804Z,14.40
2019-05-20T05:14:25.344Z,14.40
2019-05-20T05:16:53.935Z,14.40
2019-05-20T05:19:22.513Z,14.40
2019-05-20T05:21:54.006Z,14.40
2019-05-20T05:24:22.519Z,14.40
2019-05-20T05:26:51.064Z,14.40
2019-05-20T05:29:19.580Z,14.40
2019-05-20T05:31:48.050Z,14.40
2019-05-20T05:34:16.701Z,14.40
2019-05-20T05:36:45.483Z,14.40
2019-05-20T05:39:14.065Z,14.40
2019-05-20T05:41:42.611Z,14.40
2019-05-20T05:44:11.115Z,14.40
2019-05-20T05:46:39.632Z,14.40
2019-05-20T05:49:08.129Z,14.40
2019-05-20T05:51:36.609Z,14.40
2019-05-20T05:54:05.412Z,14.40
2019-05-20T05:56:33.905Z,14.40
2019-05-20T05:59:02.471Z,14.40
2019-05-20T06:01:30.932Z,14.40
2019-05-20T06:03:59.641Z,14.40
2019-05-20T06:06:28.129Z,14.40
2019-05-20T06:08:56.598Z,14.40
2019-05-20T06:11:25.074Z,14.40
2019-05-20T06:13:53.545Z,14.40
2019-05-20T06:16:36.038Z,14.40
2019-05-20T06:18:52.228Z,14.40
2019-05-20T06:21:20.794Z,14.30
2019-05-20T06:23:49.384Z,14.40
2019-05-20T06:26:17.869Z,14.40
2019-05-20T06:28:46.376Z,14.40
2019-05-20T06:31:16.043Z,14.40
2019-05-20T06:33:44.573Z,14.40
2019-05-20T06:36:26.050Z,14.40
2019-05-20T06:38:44.399Z,14.40
2019-05-20T06:41:12.896Z,14.40
2019-05-20T06:43:41.437Z,14.40
2019-05-20T06:46:09.929Z,14.40
2019-05-20T06:48:38.437Z,14.40
2019-05-20T06:51:06.869Z,14.40
2019-05-20T06:53:35.445Z,14.40
2019-05-20T06:56:04.052Z,14.40
2019-05-20T06:58:32.597Z,14.40
2019-05-20T07:01:01.104Z,14.40
2019-05-20T07:03:29.626Z,14.40
2019-05-20T07:05:58.089Z,14.40
2019-05-20T07:08:26.661Z,14.40
2019-05-20T07:10:55.150Z,14.40
2019-05-20T07:13:26.044Z,14.40
2019-05-20T07:15:54.536Z,14.40
2019-05-20T07:18:23.208Z,14.40
2019-05-20T07:20:51.661Z,14.50
2019-05-20T07:23:20.119Z,14.50
2019-05-20T07:25:48.756Z,14.50
2019-05-20T07:28:17.274Z,14.50
2019-05-20T07:30:45.740Z,14.50
2019-05-20T07:33:14.292Z,14.50
2019-05-20T07:35:42.819Z,14.50
2019-05-20T07:38:11.330Z,14.50
2019-05-20T07:40:39.969Z,14.50
2019-05-20T07:43:08.413Z,14.50
2019-05-20T07:45:37.204Z,14.50
2019-05-20T07:48:06.017Z,14.50
2019-05-20T07:50:37.301Z,14.50
2019-05-20T07:53:07.487Z,14.60
2019-05-20T07:55:39.018Z,14.50
2019-05-20T07:58:09.752Z,14.50
2019-05-20T08:00:38.446Z,14.50
2019-05-20T08:03:07.005Z,14.60
2019-05-20T08:05:35.433Z,14.50
2019-05-20T08:08:04.134Z,14.50
2019-05-20T08:10:32.600Z,14.60
2019-05-20T08:13:01.111Z,14.50
2019-05-20T08:15:29.636Z,14.50
2019-05-20T08:17:58.128Z,14.50
2019-05-20T08:20:26.676Z,14.50
2019-05-20T08:22:55.107Z,14.50
2019-05-20T08:25:23.646Z,14.50
2019-05-20T08:27:52.094Z,14.60
2019-05-20T08:30:32.724Z,14.50
2019-05-20T08:33:01.382Z,14.50
2019-05-20T08:35:29.890Z,14.50
2019-05-20T08:37:58.565Z,14.50
2019-05-20T08:40:27.067Z,14.50
2019-05-20T08:42:55.560Z,14.50
2019-05-20T08:45:24.108Z,14.50
2019-05-20T08:47:52.617Z,14.50
2019-05-20T08:50:21.144Z,14.50
2019-05-20T08:52:49.741Z,14.50
2019-05-20T08:55:18.459Z,14.50
2019-05-20T08:57:46.905Z,14.50
2019-05-20T09:00:23.219Z,14.50
2019-05-20T09:02:49.105Z,14.50
2019-05-20T09:05:17.706Z,14.50
2019-05-20T09:08:01.552Z,14.50
2019-05-20T09:10:18.337Z,14.50
2019-05-20T09:12:47.123Z,14.50
2019-05-20T09:15:15.787Z,14.60
2019-05-20T09:17:44.259Z,14.50
2019-05-20T09:20:13.326Z,14.50
2019-05-20T09:22:41.858Z,14.60
2019-05-20T09:25:10.896Z,14.60
2019-05-20T09:27:39.701Z,14.60
2019-05-20T09:30:10.558Z,14.50
2019-05-20T09:32:42.800Z,14.50
2019-05-20T09:35:09.907Z,14.60
2019-05-20T09:37:38.412Z,14.50
2019-05-20T09:40:07.527Z,14.60
2019-05-20T09:42:36.047Z,14.60
2019-05-20T09:45:05.723Z,14.60
2019-05-20T09:47:34.361Z,14.60
2019-05-20T09:50:03.215Z,14.60
2019-05-20T09:52:31.814Z,14.60
2019-05-20T09:55:00.353Z,14.60
2019-05-20T09:57:29.319Z,14.60
2019-05-20T09:59:57.779Z,14.60
2019-05-20T10:02:35.366Z,14.60
2019-05-20T10:04:56.496Z,14.60
2019-05-20T10:07:24.968Z,14.60
2019-05-20T10:09:53.409Z,14.60
2019-05-20T10:12:21.836Z,14.60
2019-05-20T10:14:52.773Z,14.60
2019-05-20T10:17:20.652Z,14.60
2019-05-20T10:19:49.160Z,14.60
2019-05-20T10:22:17.650Z,14.60
2019-05-20T10:24:46.226Z,14.60
2019-05-20T10:27:14.736Z,14.60
2019-05-20T10:29:43.311Z,14.60
2019-05-20T10:32:11.844Z,14.60
2019-05-20T10:34:40.865Z,14.70
2019-05-20T10:37:09.353Z,14.60
2019-05-20T10:39:37.943Z,14.70
2019-05-20T10:42:06.420Z,14.60
2019-05-20T10:44:34.888Z,14.60
2019-05-20T10:47:03.377Z,14.60
2019-05-20T10:49:31.921Z,14.60
2019-05-20T10:52:00.456Z,14.60
2019-05-20T10:54:28.932Z,14.60
2019-05-20T10:56:59.676Z,14.60
2019-05-20T10:59:27.708Z,14.60
2019-05-20T11:01:56.270Z,14.60
2019-05-20T11:04:24.770Z,14.60
2019-05-20T11:06:53.374Z,14.60
2019-05-20T11:09:22.005Z,14.70
2019-05-20T11:11:50.805Z,14.70
2019-05-20T11:14:19.299Z,14.70
2019-05-20T11:16:47.772Z,14.70
2019-05-20T11:19:16.229Z,14.70
2019-05-20T11:21:44.685Z,14.70
2019-05-20T11:24:13.147Z,14.70
2019-05-20T11:26:41.596Z,14.70
2019-05-20T11:29:10.099Z,14.70
2019-05-20T11:31:38.561Z,14.70
2019-05-20T11:34:07.063Z,14.70
2019-05-20T11:36:35.668Z,14.70
2019-05-20T11:39:07.296Z,14.70
2019-05-20T11:41:53.999Z,14.70
2019-05-20T11:44:06.437Z,14.70
2019-05-20T11:46:34.894Z,14.70
2019-05-20T11:49:03.467Z,14.70
2019-05-20T11:51:31.997Z,14.80
2019-05-20T11:54:00.489Z,14.80
2019-05-20T11:56:28.994Z,14.80
2019-05-20T11:58:57.458Z,14.80
2019-05-20T12:01:25.986Z,14.80
2019-05-20T12:03:54.500Z,14.70
2019-05-20T12:06:23.039Z,14.80
2019-05-20T12:08:51.500Z,14.80
2019-05-20T12:11:20.038Z,14.80
2019-05-20T12:13:48.608Z,14.80
2019-05-20T12:16:17.190Z,14.80
2019-05-20T12:18:45.625Z,14.80
2019-05-20T12:21:14.157Z,14.80
2019-05-20T12:23:42.602Z,14.80
2019-05-20T12:26:11.058Z,14.80
2019-05-20T12:28:39.493Z,14.80
2019-05-20T12:31:08.045Z,14.80
2019-05-20T12:33:36.564Z,14.80
2019-05-20T12:36:05.382Z,14.80
2019-05-20T12:38:33.843Z,14.80
2019-05-20T12:41:02.724Z,14.80
2019-05-20T12:43:31.182Z,14.80
2019-05-20T12:45:59.717Z,14.80
2019-05-20T12:48:28.174Z,14.80
2019-05-20T12:50:56.714Z,14.80
2019-05-20T12:53:25.161Z,14.80
2019-05-20T12:55:53.645Z,14.80
2019-05-20T12:58:22.218Z,14.80
2019-05-20T13:00:51.139Z,14.80
2019-05-20T13:03:19.770Z,14.80
2019-05-20T13:05:48.300Z,14.80
2019-05-20T13:08:16.852Z,14.80
2019-05-20T13:10:45.319Z,14.80
2019-05-20T13:13:13.840Z,14.80
2019-05-20T13:15:42.333Z,14.80
2019-05-20T13:18:10.858Z,14.80
2019-05-20T13:20:39.458Z,14.80
2019-05-20T13:23:10.247Z,14.80
2019-05-20T13:25:38.153Z,14.80
2019-05-20T13:28:06.615Z,14.80
2019-05-20T13:30:35.089Z,14.80
2019-05-20T13:33:03.603Z,14.80
2019-05-20T13:35:32.136Z,14.80
2019-05-20T13:38:00.722Z,14.80
2019-05-20T13:40:44.930Z,14.80
2019-05-20T13:42:59.379Z,14.80
2019-05-20T13:45:27.952Z,14.80
2019-05-20T13:47:56.418Z,14.80
2019-05-20T13:50:24.931Z,14.90
2019-05-20T13:52:53.386Z,14.90
2019-05-20T13:55:21.890Z,14.90
2019-05-20T13:57:50.455Z,14.90
2019-05-20T14:00:19.143Z,14.90
2019-05-20T14:02:47.746Z,14.90
2019-05-20T14:05:16.348Z,14.90
2019-05-20T14:07:44.988Z,15.00
2019-05-20T14:10:14.372Z,14.90
2019-05-20T14:12:43.069Z,15.00
2019-05-20T14:15:11.974Z,15.00
2019-05-20T14:17:40.652Z,15.00
2019-05-20T14:20:09.695Z,15.00
2019-05-20T14:22:38.208Z,14.90
2019-05-20T14:25:07.383Z,15.00
2019-05-20T14:27:35.869Z,15.00
2019-05-20T14:30:06.570Z,15.00
2019-05-20T14:32:35.117Z,15.00
2019-05-20T14:35:05.804Z,15.00
2019-05-20T14:37:34.313Z,15.00
2019-05-20T14:40:03.269Z,15.00
2019-05-20T17:14:29.284Z,15.00
2019-05-20T17:16:57.788Z,15.00
2019-05-20T17:19:26.260Z,15.00
2019-05-20T17:21:54.784Z,15.00
2019-05-20T17:24:23.265Z,15.00
2019-05-20T17:26:51.739Z,15.00
2019-05-20T17:29:20.301Z,14.90
2019-05-20T17:31:48.826Z,14.90
2019-05-20T17:34:17.319Z,14.90
2019-05-20T17:36:47.368Z,14.90
2019-05-20T17:39:16.295Z,14.90
2019-05-20T17:41:44.818Z,14.90
2019-05-20T17:44:13.346Z,14.90
2019-05-20T17:46:41.885Z,14.90
2019-05-20T17:49:10.403Z,14.90
2019-05-20T17:51:39.052Z,14.80
2019-05-20T17:54:07.616Z,14.80
2019-05-20T17:56:36.356Z,14.80
2019-05-20T17:59:05.025Z,14.80
2019-05-20T18:01:33.477Z,14.80
2019-05-20T18:04:01.973Z,14.80
2019-05-20T18:06:30.548Z,14.80
2019-05-20T18:09:00.769Z,14.80
2019-05-20T18:11:29.380Z,14.80
2019-05-20T18:13:58.060Z,14.80
2019-05-20T18:16:26.674Z,14.80
2019-05-20T18:18:55.319Z,14.80
2019-05-20T18:21:23.971Z,14.70
2019-05-20T18:23:52.486Z,14.70
2019-05-20T18:26:21.140Z,14.70
2019-05-20T18:28:49.638Z,14.70
2019-05-20T18:31:32.079Z,14.70
2019-05-20T18:33:48.811Z,14.70
2019-05-20T18:36:17.569Z,14.70
2019-05-20T18:38:49.267Z,14.70
2019-05-20T18:41:16.315Z,14.70
2019-05-20T18:43:44.872Z,14.70
2019-05-20T18:46:13.344Z,14.70
2019-05-20T18:48:41.827Z,14.70
2019-05-20T18:51:10.369Z,14.70
2019-05-20T18:53:38.814Z,14.60
2019-05-20T18:56:08.070Z,14.60
2019-05-20T18:58:36.581Z,14.60
2019-05-20T19:01:05.335Z,14.60
2019-05-20T19:03:34.297Z,14.60
2019-05-20T19:06:02.962Z,14.60
2019-05-20T19:08:34.888Z,14.60
2019-05-20T19:11:03.484Z,14.60
2019-05-20T19:13:31.946Z,14.60
2019-05-20T19:16:00.490Z,14.60
2019-05-20T19:18:28.950Z,14.60
2019-05-20T19:21:01.671Z,14.60
2019-05-20T19:23:30.211Z,14.60
2019-05-20T19:26:04.813Z,14.60
2019-05-20T19:28:33.310Z,14.60
2019-05-20T19:31:01.931Z,14.60
2019-05-20T19:33:30.571Z,14.50
2019-05-20T19:35:59.034Z,14.60
2019-05-20T19:38:31.110Z,14.50
2019-05-20T19:40:57.815Z,14.50
2019-05-20T19:43:26.396Z,14.40
2019-05-20T19:45:54.869Z,14.50
2019-05-20T19:48:23.453Z,14.50
2019-05-20T19:50:51.977Z,14.40
2019-05-20T19:53:20.495Z,14.40
2019-05-20T19:55:49.056Z,14.40
2019-05-20T19:58:17.496Z,14.40
2019-05-20T20:00:45.952Z,14.40
2019-05-20T20:03:14.507Z,14.40
2019-05-20T20:05:43.018Z,14.40
2019-05-20T20:08:11.498Z,14.40
2019-05-20T20:10:40.025Z,14.40
2019-05-20T20:13:08.461Z,14.40
2019-05-20T20:15:37.053Z,14.40
2019-05-20T20:18:05.489Z,14.40
2019-05-20T20:20:34.000Z,14.30
2019-05-20T20:23:02.532Z,14.30
2019-05-20T20:25:31.115Z,14.30
2019-05-20T20:27:59.552Z,14.30
2019-05-20T20:30:28.119Z,14.30
2019-05-20T20:32:56.660Z,14.30
2019-05-20T20:35:37.265Z,14.30
2019-05-20T20:37:55.325Z,14.30
2019-05-20T20:40:26.098Z,14.30
2019-05-20T20:42:53.954Z,14.30
2019-05-20T20:45:22.520Z,14.20
2019-05-20T20:47:51.026Z,14.20
2019-05-20T20:50:19.682Z,14.20
2019-05-20T20:52:50.268Z,14.20
2019-05-20T20:55:18.895Z,14.20
2019-05-20T20:57:47.683Z,14.20
2019-05-20T21:00:16.725Z,14.20
2019-05-20T21:02:53.412Z,14.20
2019-05-20T21:05:16.949Z,14.20
2019-05-20T21:07:45.470Z,14.20
2019-05-20T21:10:13.967Z,14.20
2019-05-20T21:12:44.087Z,14.20
2019-05-20T21:15:12.712Z,14.10
2019-05-20T21:17:41.166Z,14.10
2019-05-20T21:20:10.183Z,14.10
2019-05-20T21:22:38.894Z,14.10
2019-05-20T21:25:07.561Z,14.10
2019-05-20T21:27:36.117Z,14.10
2019-05-20T21:30:07.374Z,14.00
2019-05-20T21:32:35.842Z,14.00
2019-05-20T21:35:06.159Z,14.00
2019-05-20T21:37:34.708Z,14.00
2019-05-20T21:40:03.417Z,14.00
2019-05-20T21:42:31.854Z,14.00
2019-05-20T21:45:00.384Z,14.00
2019-05-20T21:47:28.884Z,14.00
2019-05-20T21:49:57.395Z,14.00
2019-05-20T21:52:25.827Z,14.00
2019-05-20T21:54:54.286Z,14.00
2019-05-20T21:57:22.724Z,14.00
2019-05-20T21:59:51.255Z,13.90
2019-05-20T22:02:19.990Z,13.90
2019-05-20T22:04:48.525Z,13.90
2019-05-20T22:07:17.058Z,13.90
2019-05-20T22:09:45.573Z,13.90
2019-05-20T22:12:14.052Z,13.90
2019-05-20T22:14:42.545Z,13.90
2019-05-20T22:17:11.423Z,13.90
2019-05-20T22:19:40.335Z,13.90
2019-05-20T22:22:19.382Z,13.90
2019-05-20T22:24:47.947Z,13.90
2019-05-20T22:27:16.389Z,13.90
2019-05-20T22:29:44.853Z,13.80
2019-05-20T22:32:13.308Z,13.80
2019-05-20T22:34:52.868Z,13.80
2019-05-20T22:37:12.033Z,13.80
2019-05-20T22:39:40.556Z,13.90
2019-05-20T22:42:09.017Z,13.90
2019-05-20T22:44:37.462Z,13.80
2019-05-20T22:47:05.929Z,13.80
2019-05-20T22:49:34.462Z,13.80
2019-05-20T22:52:03.478Z,13.80
2019-05-20T22:54:31.962Z,13.80
2019-05-20T22:57:00.723Z,13.80
2019-05-20T22:59:29.203Z,13.80
2019-05-20T23:01:57.681Z,13.80
2019-05-20T23:04:41.513Z,13.80
2019-05-20T23:07:09.960Z,13.80
2019-05-20T23:09:38.428Z,13.70
2019-05-20T23:12:07.238Z,13.70
2019-05-20T23:14:35.729Z,13.70
2019-05-20T23:17:04.308Z,13.70
2019-05-20T23:19:32.853Z,13.70
2019-05-20T23:22:01.472Z,13.70
2019-05-20T23:24:29.927Z,13.70
2019-05-20T23:26:58.408Z,13.70
2019-05-20T23:29:26.883Z,13.70
2019-05-20T23:31:56.880Z,13.70
2019-05-20T23:34:25.376Z,13.70
2019-05-20T23:36:53.850Z,13.70
2019-05-20T23:39:22.331Z,13.70
2019-05-20T23:41:50.763Z,13.70
2019-05-20T23:44:19.226Z,13.70
2019-05-20T23:46:50.895Z,13.70
2019-05-20T23:49:19.484Z,13.70
2019-05-20T23:51:47.918Z,13.70
2019-05-20T23:54:16.432Z,13.70
2019-05-20T23:56:44.993Z,13.70
2019-05-20T23:59:13.468Z,13.70
